Nearby METAR Reports

 

LBSF - Sofia (observato, Bulgaria
Distance from station: ENE 64km
Updated: 14/08/2022 06:30
Overcast
Overcast
 Wind from WNW
Wind: WNW 4 km/h
Temperature: 16°C
Dew Point: 15°C
Humidity: 94%
Barometer: 1010 hPa
Clouds: Overcast
Visibility: 8 km
Cloud details: Overcast 213 m
2022/08/14 03:30 LBSF 140330Z 30002KT 8000 OVC007 16/15 Q1010 NOSIG
LWSK - Skopje/Petrovac, Macedonia
Distance from station: WSW 99km
Updated: 14/08/2022 07:00
Light drizzle, Mostly cloudy
Light drizzle, Mostly cloudy
 Wind from calm
Wind: Calm
Temperature: 18°C
Dew Point: 17°C
Humidity: 94%
Barometer: 1010 hPa
Summary: Light Drizzle
Clouds: Mostly Cloudy
Visibility: 8 km
Cloud details: Few Clouds 183 m
Partly Cloudy 305 m
Mostly Cloudy 2743 m
2022/08/14 04:00 LWSK 140400Z 00000KT 8000 -DZ FEW006 SCT010 BKN090 18/17 Q1010 NOSIG
 
LYNI - Nis, Yugoslavia
Distance from station: NNW 127km
Updated: 14/08/2022 07:00
Rain, Mostly cloudy
Rain, Mostly cloudy
 Wind from calm
Wind: Calm
Temperature: 17°C
Dew Point: 17°C
Humidity: 100%
Barometer: 1010 hPa
Summary: Rain
Clouds: Mostly Cloudy
Visibility: 6 km
Cloud details: Few Clouds 91 m
Partly Cloudy 152 m
Mostly Cloudy 823 m
2022/08/14 04:00 LYNI 140400Z 00000KT 6000 RA FEW003 SCT005 BKN027 17/17 Q1010 NOSIG
BKPR - Prishtina, Yugoslavia
Distance from station: W 141km
Updated: 14/08/2022 07:00
Mostly Cloudy
Mostly Cloudy
 Wind from WNW
Wind: WNW 9 km/h
Temperature: 16°C
Dew Point: 14°C
Humidity: 88%
Barometer: 1011 hPa
Clouds: Mostly Cloudy
Visibility: 10 km
Cloud details: Partly Cloudy 610 m
Mostly Cloudy 914 m
2022/08/14 04:00 BKPR 140400Z 30005KT 9999 SCT020 BKN030 16/14 Q1011 NOSIG